createdAt,value
2024-02-20T00:00:34.400Z,17.80
2024-02-20T00:01:36.177Z,17.75
2024-02-20T00:02:37.854Z,17.65
2024-02-20T00:03:39.478Z,19.80
2024-02-20T00:04:41.148Z,19.80
2024-02-20T00:05:42.876Z,17.65
2024-02-20T00:06:44.988Z,17.30
2024-02-20T00:07:46.903Z,18.00
2024-02-20T00:08:48.512Z,18.25
2024-02-20T00:09:50.233Z,17.95
2024-02-20T00:10:51.941Z,18.38
2024-02-20T00:11:53.614Z,17.15
2024-02-20T00:12:55.267Z,16.83
2024-02-20T00:13:59.804Z,16.67
2024-02-20T00:15:02.901Z,16.73
2024-02-20T00:16:05.980Z,17.58
2024-02-20T00:17:08.510Z,17.08
2024-02-20T00:18:11.431Z,17.33
2024-02-20T00:19:13.313Z,17.15
2024-02-20T00:20:14.956Z,15.88
2024-02-20T00:21:16.541Z,16.25
2024-02-20T00:22:18.150Z,16.58
2024-02-20T00:23:19.756Z,17.33
2024-02-20T00:24:21.313Z,17.42
2024-02-20T00:25:23.171Z,17.73
2024-02-20T00:26:25.743Z,17.33
2024-02-20T00:27:27.846Z,15.70
2024-02-20T00:28:29.534Z,17.27
2024-02-20T00:29:31.193Z,16.65
2024-02-20T00:30:32.779Z,16.73
2024-02-20T00:31:35.711Z,17.50
2024-02-20T00:32:38.090Z,16.67
2024-02-20T00:33:39.772Z,18.02
2024-02-20T00:34:41.379Z,17.20
2024-02-20T00:35:43.231Z,17.02
2024-02-20T00:36:44.777Z,17.27
2024-02-20T00:37:46.923Z,16.70
2024-02-20T00:38:48.489Z,17.98
2024-02-20T00:39:50.141Z,17.77
2024-02-20T00:40:51.823Z,17.52
2024-02-20T00:41:53.442Z,17.25
2024-02-20T00:42:55.023Z,17.55
2024-02-20T00:43:56.619Z,17.13
2024-02-20T00:45:02.449Z,18.58
2024-02-20T00:46:04.517Z,17.05
2024-02-20T00:47:10.938Z,18.23
2024-02-20T00:48:14.033Z,16.75
2024-02-20T00:49:15.833Z,17.80
2024-02-20T00:50:17.579Z,16.33
2024-02-20T00:51:20.952Z,17.73
2024-02-20T00:52:24.635Z,18.15
2024-02-20T00:53:26.245Z,16.92
2024-02-20T00:54:27.884Z,16.75
2024-02-20T00:55:29.601Z,18.65
2024-02-20T00:56:31.945Z,18.10
2024-02-20T00:57:33.548Z,18.15
2024-02-20T00:58:35.180Z,18.63
2024-02-20T00:59:37.009Z,17.83
2024-02-20T01:00:38.820Z,18.88
2024-02-20T01:01:40.575Z,18.10
2024-02-20T01:02:42.308Z,16.65
2024-02-20T01:03:44.570Z,17.35
2024-02-20T01:04:46.288Z,17.27
2024-02-20T01:05:48.076Z,18.40
2024-02-20T01:06:49.724Z,18.42
2024-02-20T01:07:51.332Z,18.27
2024-02-20T01:08:53.004Z,18.45
2024-02-20T01:09:54.672Z,17.25
2024-02-20T01:10:56.388Z,18.10
2024-02-20T01:11:57.984Z,18.33
2024-02-20T01:13:01.473Z,18.73
2024-02-20T01:14:03.240Z,18.38
2024-02-20T01:15:05.552Z,18.88
2024-02-20T01:16:08.023Z,19.02
2024-02-20T01:17:09.611Z,17.80
2024-02-20T01:18:11.354Z,18.42
2024-02-20T01:19:13.218Z,17.90
2024-02-20T01:20:14.914Z,18.63
2024-02-20T01:21:16.593Z,19.33
2024-02-20T01:22:18.205Z,18.30
2024-02-20T01:23:20.165Z,17.95
2024-02-20T01:24:21.805Z,17.98
2024-02-20T01:25:23.539Z,17.88
2024-02-20T01:26:25.115Z,17.38
2024-02-20T01:27:26.799Z,19.02
2024-02-20T01:28:28.528Z,17.30
2024-02-20T01:29:30.426Z,17.88
2024-02-20T01:30:32.412Z,17.90
2024-02-20T01:31:34.259Z,18.45
2024-02-20T01:32:35.965Z,18.95
2024-02-20T01:33:37.624Z,18.08
2024-02-20T01:34:39.522Z,18.98
2024-02-20T01:35:42.675Z,17.30
2024-02-20T01:36:44.276Z,18.55
2024-02-20T01:37:45.868Z,17.33
2024-02-20T01:38:47.699Z,18.13
2024-02-20T01:39:49.344Z,18.13
2024-02-20T01:40:50.938Z,18.73
2024-02-20T01:41:52.465Z,17.88
2024-02-20T01:43:01.250Z,17.60
2024-02-20T01:44:02.960Z,18.02
2024-02-20T01:45:05.061Z,18.08
2024-02-20T01:46:08.566Z,17.08
2024-02-20T01:47:10.166Z,17.10
2024-02-20T01:48:12.032Z,17.33
2024-02-20T01:49:14.186Z,16.65
2024-02-20T01:50:16.267Z,17.35
2024-02-20T01:51:20.174Z,17.63
2024-02-20T01:52:21.859Z,17.15
2024-02-20T01:53:23.772Z,16.45
2024-02-20T01:54:25.690Z,16.63
2024-02-20T01:55:28.086Z,15.57
2024-02-20T01:56:30.624Z,15.55
2024-02-20T01:57:32.698Z,15.60
2024-02-20T01:58:34.833Z,16.13
2024-02-20T01:59:36.681Z,15.73
2024-02-20T02:00:38.262Z,14.85
2024-02-20T02:01:40.089Z,15.85
2024-02-20T02:02:42.964Z,14.75
2024-02-20T02:03:44.668Z,14.80
2024-02-20T02:04:46.417Z,15.05
2024-02-20T02:05:48.360Z,14.57
2024-02-20T02:06:50.181Z,15.43
2024-02-20T02:07:51.917Z,14.63
2024-02-20T02:08:53.979Z,15.00
2024-02-20T02:09:55.599Z,14.60
2024-02-20T02:10:57.433Z,14.55
2024-02-20T02:11:59.110Z,14.88
2024-02-20T02:13:00.682Z,14.43
2024-02-20T02:14:02.320Z,15.15
2024-02-20T02:15:04.253Z,15.60
2024-02-20T02:16:06.101Z,15.02
2024-02-20T02:17:08.059Z,14.05
2024-02-20T02:18:09.731Z,14.10
2024-02-20T02:19:11.390Z,15.13
2024-02-20T02:20:13.136Z,14.82
2024-02-20T02:21:14.912Z,14.57
2024-02-20T02:22:16.539Z,15.30
2024-02-20T02:23:18.148Z,15.05
2024-02-20T02:24:19.734Z,14.10
2024-02-20T02:25:21.590Z,14.52
2024-02-20T02:26:23.815Z,14.32
2024-02-20T02:27:25.425Z,14.80
2024-02-20T02:28:27.174Z,15.77
2024-02-20T02:29:29.627Z,15.60
2024-02-20T02:30:31.170Z,15.18
2024-02-20T02:31:33.171Z,16.08
2024-02-20T02:32:34.929Z,15.98
2024-02-20T02:33:37.056Z,16.85
2024-02-20T02:34:38.729Z,14.52
2024-02-20T02:35:40.655Z,14.27
2024-02-20T02:36:42.234Z,16.23
2024-02-20T02:37:43.869Z,14.95
2024-02-20T02:38:45.508Z,15.68
2024-02-20T02:39:47.423Z,15.52
2024-02-20T02:40:48.984Z,15.75
2024-02-20T02:41:51.429Z,15.15
2024-02-20T02:42:53.149Z,15.57
2024-02-20T02:43:54.824Z,14.73
2024-02-20T02:44:56.364Z,14.88
2024-02-20T02:45:58.237Z,14.27
2024-02-20T02:46:59.981Z,14.60
2024-02-20T02:48:01.626Z,15.45
2024-02-20T02:49:03.358Z,15.15
2024-02-20T02:50:05.611Z,15.38
2024-02-20T02:51:09.795Z,15.82
2024-02-20T02:52:11.600Z,15.93
2024-02-20T02:53:13.515Z,15.60
2024-02-20T02:54:15.148Z,16.10
2024-02-20T02:55:17.498Z,15.38
2024-02-20T02:56:19.105Z,18.00
2024-02-20T02:57:20.668Z,16.42
2024-02-20T02:58:22.336Z,15.93
2024-02-20T02:59:24.145Z,16.15
2024-02-20T03:00:25.774Z,16.70
2024-02-20T03:01:27.766Z,16.83
2024-02-20T03:02:29.363Z,16.52
2024-02-20T03:03:31.035Z,17.80
2024-02-20T03:04:33.065Z,14.95
2024-02-20T03:05:37.566Z,16.38
2024-02-20T03:06:41.162Z,15.60
2024-02-20T03:07:42.757Z,16.58
2024-02-20T03:08:46.547Z,17.95
2024-02-20T03:09:48.136Z,17.25
2024-02-20T03:10:49.885Z,16.55
2024-02-20T03:11:51.583Z,15.63
2024-02-20T03:12:57.028Z,15.95
2024-02-20T03:13:59.356Z,15.90
2024-02-20T03:15:00.917Z,15.65
2024-02-20T03:16:03.648Z,16.00
2024-02-20T03:17:05.430Z,15.45
2024-02-20T03:18:07.957Z,15.80
2024-02-20T03:19:10.501Z,14.48
2024-02-20T03:20:16.508Z,14.73
2024-02-20T03:21:21.324Z,15.38
2024-02-20T03:22:24.591Z,16.52
2024-02-20T03:23:28.039Z,14.85
2024-02-20T03:24:29.947Z,14.57
2024-02-20T03:25:31.588Z,14.15
2024-02-20T03:26:33.174Z,14.23
2024-02-20T03:27:36.222Z,14.77
2024-02-20T03:28:37.809Z,13.95
2024-02-20T03:29:39.519Z,13.95
2024-02-20T03:30:42.274Z,14.02
2024-02-20T03:31:44.161Z,13.45
2024-02-20T03:32:45.882Z,14.85
2024-02-20T03:33:47.599Z,13.10
2024-02-20T03:34:49.283Z,14.43
2024-02-20T03:35:51.073Z,15.60
2024-02-20T03:36:52.768Z,14.93
2024-02-20T03:37:54.396Z,16.33
2024-02-20T03:38:55.936Z,15.63
2024-02-20T03:39:57.515Z,15.35
2024-02-20T03:40:59.185Z,15.57
2024-02-20T03:42:00.736Z,16.63
2024-02-20T03:43:04.839Z,15.45
2024-02-20T03:44:06.433Z,15.45
2024-02-20T03:45:08.338Z,15.75
2024-02-20T03:46:10.463Z,15.20
2024-02-20T03:47:12.091Z,16.58
2024-02-20T03:48:13.941Z,16.38
2024-02-20T03:49:15.760Z,17.13
2024-02-20T03:50:17.618Z,15.98
2024-02-20T03:51:19.583Z,16.02
2024-02-20T03:52:21.385Z,16.48
2024-02-20T03:53:22.926Z,16.15
2024-02-20T03:54:24.529Z,15.15
2024-02-20T03:55:26.337Z,15.32
2024-02-20T03:56:27.911Z,14.05
2024-02-20T03:57:29.458Z,15.13
2024-02-20T03:58:30.992Z,16.08
2024-02-20T03:59:33.142Z,15.30
2024-02-20T04:00:34.790Z,15.27
2024-02-20T04:01:36.592Z,14.32
2024-02-20T04:02:43.302Z,14.27
2024-02-20T04:03:45.024Z,14.88
2024-02-20T04:04:46.693Z,14.27
2024-02-20T04:05:49.185Z,14.95
2024-02-20T04:06:51.641Z,15.20
2024-02-20T04:07:53.450Z,14.45
2024-02-20T04:08:55.410Z,14.65
2024-02-20T04:09:57.035Z,14.73
2024-02-20T04:10:58.891Z,14.90
2024-02-20T04:12:00.607Z,14.40
2024-02-20T04:13:02.360Z,15.65
2024-02-20T04:14:04.379Z,14.80
2024-02-20T04:15:07.479Z,14.00
2024-02-20T04:16:09.156Z,15.00
2024-02-20T04:17:10.729Z,14.55
2024-02-20T04:18:12.296Z,15.13
2024-02-20T04:19:14.116Z,15.27
2024-02-20T04:20:15.943Z,15.32
2024-02-20T04:21:17.550Z,15.50
2024-02-20T04:22:19.174Z,16.92
2024-02-20T04:23:20.798Z,15.05
2024-02-20T04:24:22.374Z,16.20
2024-02-20T04:25:24.253Z,15.70
2024-02-20T04:26:26.592Z,14.70
2024-02-20T04:27:28.958Z,15.00
2024-02-20T04:28:36.366Z,15.45
2024-02-20T04:29:38.090Z,15.05
2024-02-20T04:30:45.608Z,14.90
2024-02-20T04:31:47.290Z,15.63
2024-02-20T04:32:48.940Z,14.35
2024-02-20T04:33:50.819Z,14.27
2024-02-20T04:34:52.661Z,15.43
2024-02-20T04:35:54.266Z,15.43
2024-02-20T04:36:55.877Z,14.77
2024-02-20T04:37:57.677Z,14.77
2024-02-20T04:38:59.287Z,14.52
2024-02-20T04:40:01.004Z,14.65
2024-02-20T04:41:02.619Z,14.85
2024-02-20T04:42:04.586Z,15.90
2024-02-20T04:43:07.430Z,16.30
2024-02-20T04:44:09.440Z,17.23
2024-02-20T04:45:11.504Z,17.13
2024-02-20T04:46:13.082Z,18.35
2024-02-20T04:47:14.752Z,17.83
2024-02-20T04:48:16.493Z,18.38
2024-02-20T04:49:18.342Z,17.77
2024-02-20T04:50:19.972Z,19.35
2024-02-20T04:51:21.576Z,20.08
2024-02-20T04:52:23.210Z,20.48
2024-02-20T04:53:25.516Z,18.40
2024-02-20T04:54:28.026Z,19.77
2024-02-20T04:55:30.134Z,19.90
2024-02-20T04:56:31.747Z,19.88
2024-02-20T04:57:33.341Z,20.42
2024-02-20T04:58:35.546Z,20.40
2024-02-20T04:59:37.305Z,20.00
2024-02-20T05:00:38.948Z,19.80
2024-02-20T05:01:40.652Z,21.33
2024-02-20T05:02:43.423Z,21.13
2024-02-20T05:03:47.152Z,21.02
2024-02-20T05:04:48.788Z,21.15
2024-02-20T05:05:50.365Z,21.92
2024-02-20T05:06:52.021Z,20.17
2024-02-20T05:07:53.692Z,18.95
2024-02-20T05:08:55.466Z,19.10
2024-02-20T05:09:57.084Z,17.25
2024-02-20T05:10:58.768Z,17.08
2024-02-20T05:12:00.954Z,16.48
2024-02-20T05:13:04.556Z,17.75
2024-02-20T05:14:06.167Z,17.20
2024-02-20T05:15:08.588Z,16.40
2024-02-20T05:16:10.424Z,17.85
2024-02-20T05:17:12.106Z,17.67
2024-02-20T05:18:13.864Z,17.20
2024-02-20T05:19:15.586Z,16.85
2024-02-20T05:20:17.827Z,17.67
2024-02-20T05:21:19.437Z,18.23
2024-02-20T05:22:21.357Z,16.38
2024-02-20T05:23:23.311Z,17.15
2024-02-20T05:24:24.916Z,17.67
2024-02-20T05:25:26.564Z,17.08
2024-02-20T05:26:28.156Z,18.67
2024-02-20T05:27:29.739Z,18.20
2024-02-20T05:28:31.438Z,17.13
2024-02-20T05:29:33.112Z,17.13
2024-02-20T05:30:37.242Z,18.83
2024-02-20T05:31:38.907Z,18.23
2024-02-20T05:32:40.666Z,18.30
2024-02-20T05:33:42.383Z,17.90
2024-02-20T05:34:44.337Z,17.48
2024-02-20T05:35:46.329Z,17.88
2024-02-20T05:36:47.956Z,18.08
2024-02-20T05:37:49.642Z,17.50
2024-02-20T05:38:51.350Z,16.90
2024-02-20T05:39:52.990Z,16.42
2024-02-20T05:40:56.168Z,16.63
2024-02-20T05:41:58.016Z,17.05
2024-02-20T05:42:59.631Z,17.90
2024-02-20T05:44:02.060Z,16.48
2024-02-20T05:45:03.953Z,16.73
2024-02-20T05:46:05.595Z,17.85
2024-02-20T05:47:07.263Z,17.02
2024-02-20T05:48:09.169Z,16.50
2024-02-20T05:49:11.014Z,16.60
2024-02-20T05:50:12.988Z,17.40
2024-02-20T05:51:16.776Z,16.63
2024-02-20T05:52:18.845Z,18.00
2024-02-20T05:53:20.461Z,19.30
2024-02-20T05:54:22.263Z,19.55
2024-02-20T05:55:23.985Z,18.88
2024-02-20T05:56:26.038Z,18.98
2024-02-20T05:57:27.621Z,18.02
2024-02-20T05:58:29.183Z,20.48
2024-02-20T05:59:31.610Z,20.15
2024-02-20T06:00:33.335Z,19.35
2024-02-20T06:01:35.134Z,19.58
2024-02-20T06:02:36.782Z,20.13
2024-02-20T06:03:39.238Z,20.40
2024-02-20T06:04:41.032Z,20.77
2024-02-20T06:05:42.803Z,18.83
2024-02-20T06:06:44.644Z,19.83
2024-02-20T06:07:46.290Z,20.13
2024-02-20T06:08:48.103Z,20.35
2024-02-20T06:09:49.996Z,19.98
2024-02-20T06:10:51.871Z,21.38
2024-02-20T06:11:53.533Z,19.85
2024-02-20T06:12:55.149Z,20.38
2024-02-20T06:13:56.824Z,19.48
2024-02-20T06:14:58.450Z,20.42
2024-02-20T06:16:00.087Z,20.63
2024-02-20T06:17:01.660Z,20.45
2024-02-20T06:18:03.422Z,20.75
2024-02-20T06:19:05.138Z,20.10
2024-02-20T06:20:08.680Z,19.77
2024-02-20T06:21:10.575Z,20.13
2024-02-20T06:22:12.149Z,21.55
2024-02-20T06:23:14.238Z,19.95
2024-02-20T06:24:15.883Z,19.77
2024-02-20T06:25:17.753Z,19.63
2024-02-20T06:26:20.057Z,21.08
2024-02-20T06:27:21.880Z,21.33
2024-02-20T06:28:23.695Z,19.58
2024-02-20T06:29:25.733Z,20.70
2024-02-20T06:30:27.343Z,20.52
2024-02-20T06:31:28.945Z,19.05
2024-02-20T06:32:33.342Z,20.08
2024-02-20T06:33:37.023Z,19.98
2024-02-20T06:34:40.436Z,20.75
2024-02-20T06:35:43.058Z,20.75
2024-02-20T06:36:44.716Z,21.02
2024-02-20T06:37:46.258Z,21.90
2024-02-20T06:38:47.837Z,20.67
2024-02-20T06:39:51.187Z,19.33
2024-02-20T06:40:53.812Z,18.30
2024-02-20T06:41:55.427Z,19.27
2024-02-20T06:42:56.966Z,18.38
2024-02-20T06:43:58.561Z,19.23
2024-02-20T06:45:00.674Z,19.83
2024-02-20T06:46:02.863Z,18.67
2024-02-20T06:47:04.842Z,19.27
2024-02-20T06:48:06.746Z,19.45
2024-02-20T06:49:08.540Z,19.75
2024-02-20T06:50:14.094Z,19.70
2024-02-20T06:51:15.907Z,19.38
2024-02-20T06:52:17.627Z,19.38
2024-02-20T06:53:19.206Z,19.40
2024-02-20T06:54:20.816Z,19.17
2024-02-20T06:55:22.522Z,20.40
2024-02-20T06:56:24.302Z,20.83
2024-02-20T06:57:25.858Z,20.33
2024-02-20T06:58:28.965Z,19.02
2024-02-20T06:59:30.755Z,19.27
2024-02-20T07:00:32.503Z,20.27
2024-02-20T07:01:34.429Z,19.35
2024-02-20T07:02:36.108Z,18.75
2024-02-20T07:03:37.751Z,20.88
2024-02-20T07:04:41.704Z,20.15
2024-02-20T07:05:43.828Z,21.35
2024-02-20T07:06:45.670Z,19.30
2024-02-20T07:07:47.387Z,20.25
2024-02-20T07:08:48.993Z,20.00
2024-02-20T07:09:50.537Z,19.02
2024-02-20T07:10:52.532Z,19.88
2024-02-20T07:11:54.341Z,19.73
2024-02-20T07:12:58.867Z,20.45
2024-02-20T07:14:00.507Z,19.05
2024-02-20T07:15:03.598Z,19.95
2024-02-20T07:16:06.585Z,20.15
2024-02-20T07:17:08.185Z,19.33
2024-02-20T07:18:09.763Z,19.55
2024-02-20T07:19:12.159Z,19.67
2024-02-20T07:20:14.340Z,19.48
2024-02-20T07:21:16.117Z,19.88
2024-02-20T07:22:17.714Z,21.42
2024-02-20T07:23:19.404Z,19.80
2024-02-20T07:24:21.668Z,19.00
2024-02-20T07:25:24.161Z,20.60
2024-02-20T07:26:28.320Z,19.30
2024-02-20T07:27:29.958Z,19.83
2024-02-20T07:28:32.484Z,19.67
2024-02-20T07:29:34.176Z,20.35
2024-02-20T07:30:35.787Z,20.60
2024-02-20T07:31:37.780Z,20.35
2024-02-20T07:32:41.315Z,20.73
2024-02-20T07:33:48.424Z,20.80
2024-02-20T07:35:54.481Z,20.50
2024-02-20T07:36:56.192Z,20.33
2024-02-20T07:37:57.978Z,20.45
2024-02-20T07:38:59.572Z,22.25
2024-02-20T07:40:01.315Z,21.08
2024-02-20T07:41:04.674Z,20.73
2024-02-20T07:42:08.576Z,21.30
2024-02-20T07:43:10.241Z,22.13
2024-02-20T07:44:11.997Z,21.67
2024-02-20T07:45:13.805Z,22.58
2024-02-20T07:46:15.893Z,23.65
2024-02-20T07:47:17.495Z,24.00
2024-02-20T07:48:19.230Z,22.45
2024-02-20T07:49:21.270Z,21.73
2024-02-20T07:50:26.550Z,22.20
2024-02-20T07:51:29.334Z,22.77
2024-02-20T07:52:31.135Z,22.35
2024-02-20T07:53:32.907Z,23.15
2024-02-20T07:54:34.435Z,23.08
2024-02-20T07:55:41.457Z,22.70
2024-02-20T07:56:43.872Z,25.52
2024-02-20T07:57:45.489Z,24.05
2024-02-20T07:58:47.099Z,27.67
2024-02-20T07:59:48.939Z,24.85
2024-02-20T08:00:50.722Z,25.13
2024-02-20T08:01:53.988Z,24.25
2024-02-20T08:02:55.826Z,24.50
2024-02-20T08:03:58.214Z,24.40
2024-02-20T08:05:00.061Z,23.48
2024-02-20T08:06:01.729Z,23.83
2024-02-20T08:07:03.951Z,23.30
2024-02-20T08:08:06.660Z,23.70
2024-02-20T08:09:08.437Z,24.10
2024-02-20T08:10:13.197Z,24.80
2024-02-20T08:11:15.621Z,24.45
2024-02-20T08:12:17.859Z,23.27
2024-02-20T08:13:23.137Z,25.50
2024-02-20T08:14:26.925Z,25.42
2024-02-20T08:15:29.079Z,24.55
2024-02-20T08:16:32.781Z,23.92
2024-02-20T08:17:34.779Z,23.58
2024-02-20T08:18:36.414Z,24.02
2024-02-20T08:19:38.244Z,22.98
2024-02-20T08:20:39.886Z,21.45
2024-02-20T08:21:41.492Z,23.08
2024-02-20T08:22:44.086Z,23.60
2024-02-20T08:23:45.887Z,22.73
2024-02-20T08:24:47.521Z,22.27
2024-02-20T08:25:49.139Z,21.77
2024-02-20T08:26:51.171Z,22.77
2024-02-20T08:27:52.796Z,23.35
2024-02-20T08:28:54.863Z,24.45
2024-02-20T08:29:56.583Z,24.63
2024-02-20T08:30:58.735Z,24.27
2024-02-20T08:32:00.342Z,22.80
2024-02-20T08:33:01.996Z,23.73
2024-02-20T08:34:03.775Z,22.25
2024-02-20T08:35:06.252Z,20.83
2024-02-20T08:36:08.122Z,21.88
2024-02-20T08:37:09.913Z,21.98
2024-02-20T08:38:11.493Z,22.75
2024-02-20T08:39:13.366Z,22.85
2024-02-20T08:40:15.197Z,22.38
2024-02-20T08:41:16.809Z,22.52
2024-02-20T08:42:19.388Z,21.52
2024-02-20T08:43:21.186Z,22.98
2024-02-20T08:44:25.142Z,23.90
2024-02-20T08:45:26.774Z,22.83
2024-02-20T08:46:28.478Z,24.02
2024-02-20T08:47:30.309Z,22.77
2024-02-20T08:48:32.020Z,23.55
2024-02-20T08:49:33.861Z,23.42
2024-02-20T08:50:35.580Z,23.25
2024-02-20T08:51:37.193Z,21.90
2024-02-20T08:52:38.947Z,23.58
2024-02-20T08:53:40.581Z,22.63
2024-02-20T08:54:42.133Z,22.45
2024-02-20T08:55:43.923Z,23.63
2024-02-20T08:56:45.583Z,21.95
2024-02-20T08:57:47.277Z,21.95
2024-02-20T08:58:55.268Z,21.58
2024-02-20T08:59:56.809Z,21.92
2024-02-20T09:01:00.007Z,22.63
2024-02-20T09:02:04.963Z,22.35
2024-02-20T09:03:06.897Z,21.92
2024-02-20T09:04:09.729Z,22.38
2024-02-20T09:05:11.981Z,21.88
2024-02-20T09:06:13.890Z,21.73
2024-02-20T09:07:15.616Z,22.27
2024-02-20T09:08:17.271Z,23.65
2024-02-20T09:09:19.361Z,22.58
2024-02-20T09:10:21.210Z,21.95
2024-02-20T09:11:22.851Z,23.35
2024-02-20T09:12:24.489Z,23.63
2024-02-20T09:13:26.056Z,21.40
2024-02-20T09:14:27.700Z,21.55
2024-02-20T09:15:29.322Z,22.48
2024-02-20T09:16:31.023Z,22.90
2024-02-20T09:17:32.797Z,23.85
2024-02-20T09:18:35.617Z,21.20
2024-02-20T09:19:37.319Z,22.88
2024-02-20T09:20:39.015Z,21.98
2024-02-20T09:21:41.294Z,21.48
2024-02-20T09:22:43.061Z,22.90
2024-02-20T09:23:45.057Z,21.48
2024-02-20T09:24:46.841Z,21.75
2024-02-20T09:25:48.450Z,20.15
2024-02-20T09:26:50.135Z,22.40
2024-02-20T09:27:51.770Z,21.40
2024-02-20T09:28:53.482Z,22.40
2024-02-20T09:29:55.228Z,21.85
2024-02-20T09:30:56.928Z,21.73
2024-02-20T09:32:02.077Z,22.35
2024-02-20T09:33:04.426Z,21.38
2024-02-20T09:34:06.095Z,22.85
2024-02-20T09:35:08.669Z,20.73
2024-02-20T09:36:10.994Z,20.75
2024-02-20T09:37:12.695Z,22.45
2024-02-20T09:38:17.259Z,20.23
2024-02-20T09:39:22.883Z,21.50
2024-02-20T09:40:24.580Z,21.25
2024-02-20T09:41:27.674Z,21.67
2024-02-20T09:42:31.630Z,20.83
2024-02-20T09:43:34.112Z,20.95
2024-02-20T09:44:40.463Z,20.17
2024-02-20T09:45:43.536Z,21.17
2024-02-20T09:46:52.701Z,20.90
2024-02-20T09:47:56.492Z,19.42
2024-02-20T09:49:01.416Z,20.58
2024-02-20T09:50:03.682Z,20.55
2024-02-20T09:51:06.805Z,19.35
2024-02-20T09:52:09.540Z,18.30
2024-02-20T09:53:14.348Z,19.65
2024-02-20T09:54:18.118Z,20.75
2024-02-20T09:55:20.083Z,20.60
2024-02-20T09:56:22.581Z,19.40
2024-02-20T09:57:25.064Z,18.70
2024-02-20T09:58:29.905Z,18.75
2024-02-20T09:59:36.235Z,17.58
2024-02-20T10:00:37.955Z,17.05
2024-02-20T10:01:40.083Z,18.70
2024-02-20T10:02:45.557Z,19.45
2024-02-20T10:03:49.116Z,20.23
2024-02-20T10:04:51.289Z,16.85
2024-02-20T10:05:53.969Z,18.90
2024-02-20T10:06:55.787Z,18.38
2024-02-20T10:08:02.108Z,20.05
2024-02-20T10:09:04.160Z,18.60
2024-02-20T10:10:10.452Z,20.10
2024-02-20T10:11:12.200Z,18.70
2024-02-20T10:12:24.740Z,20.17
2024-02-20T10:13:26.586Z,19.70
2024-02-20T10:14:29.002Z,19.48
2024-02-20T10:15:30.804Z,19.27
2024-02-20T10:16:32.526Z,19.25
2024-02-20T10:17:35.073Z,18.42
2024-02-20T10:18:36.686Z,19.60
2024-02-20T10:19:38.374Z,17.00
2024-02-20T10:20:40.312Z,17.20
2024-02-20T10:21:51.710Z,17.65
2024-02-20T10:23:04.037Z,16.63
2024-02-20T10:24:11.966Z,17.77
2024-02-20T10:25:19.425Z,18.05
2024-02-20T10:26:21.022Z,17.77
2024-02-20T10:27:22.711Z,17.83
2024-02-20T10:28:25.397Z,17.58
2024-02-20T10:29:29.422Z,18.13
2024-02-20T10:30:31.661Z,15.95
2024-02-20T10:31:34.229Z,16.70
2024-02-20T10:32:37.723Z,17.40
2024-02-20T10:33:39.524Z,17.80
2024-02-20T10:34:41.425Z,17.70
2024-02-20T10:35:44.334Z,16.10
2024-02-20T10:36:46.168Z,16.23
2024-02-20T10:38:01.939Z,15.60
2024-02-20T10:39:07.963Z,17.00
2024-02-20T10:40:21.926Z,16.58
2024-02-20T10:41:29.151Z,16.70
2024-02-20T10:42:38.193Z,16.20
2024-02-20T10:43:40.841Z,15.63
2024-02-20T10:44:44.128Z,16.40
2024-02-20T10:45:52.290Z,16.63
2024-02-20T10:46:58.335Z,17.05
2024-02-20T10:48:04.089Z,16.30
2024-02-20T10:49:28.770Z,16.58
2024-02-20T10:50:34.492Z,13.82
2024-02-20T10:51:37.896Z,14.15
2024-02-20T10:52:40.789Z,12.38
2024-02-20T10:53:45.686Z,10.07
2024-02-20T10:54:56.295Z,8.40
2024-02-20T10:56:05.887Z,8.20
2024-02-20T10:57:08.530Z,8.38
2024-02-20T10:58:17.719Z,8.57
2024-02-20T10:59:22.079Z,7.85
2024-02-20T11:00:24.279Z,8.45
2024-02-20T11:01:27.724Z,8.30
2024-02-20T11:02:29.883Z,8.85
2024-02-20T11:03:41.360Z,7.72
2024-02-20T11:04:48.089Z,7.07
2024-02-20T11:05:53.336Z,7.72
2024-02-20T11:06:56.390Z,6.53
2024-02-20T11:08:09.188Z,6.60
2024-02-20T11:09:12.411Z,6.13
2024-02-20T11:10:19.216Z,7.65
2024-02-20T11:11:25.090Z,7.93
2024-02-20T11:12:35.393Z,7.35
2024-02-20T11:13:38.003Z,8.23
2024-02-20T11:14:39.658Z,7.40
2024-02-20T11:15:41.298Z,7.38
2024-02-20T11:16:50.705Z,7.13
2024-02-20T11:17:53.819Z,6.53
2024-02-20T11:18:55.866Z,7.13
2024-02-20T11:20:07.941Z,8.27
2024-02-20T11:21:09.503Z,7.72
2024-02-20T11:22:11.115Z,7.85
2024-02-20T11:23:13.305Z,7.28
2024-02-20T11:24:19.302Z,7.45
2024-02-20T11:25:21.736Z,6.65
2024-02-20T11:26:31.786Z,8.30
2024-02-20T11:27:44.357Z,7.10
2024-02-20T11:28:46.406Z,7.55
2024-02-20T11:29:48.074Z,7.47
2024-02-20T11:30:49.773Z,7.55
2024-02-20T11:31:51.488Z,7.07
2024-02-20T11:32:55.793Z,6.72
2024-02-20T11:33:59.220Z,6.53
2024-02-20T11:35:01.102Z,6.75
2024-02-20T11:36:05.917Z,5.80
2024-02-20T11:37:10.463Z,5.78
2024-02-20T11:38:14.375Z,6.95
2024-02-20T11:39:17.824Z,7.15
2024-02-20T11:40:30.579Z,6.25
2024-02-20T11:41:35.230Z,6.50
2024-02-20T11:42:39.285Z,6.55
2024-02-20T11:43:42.456Z,6.93
2024-02-20T11:44:44.188Z,6.75
2024-02-20T11:45:45.916Z,7.88
2024-02-20T11:46:56.963Z,7.03
2024-02-20T11:48:07.054Z,6.85
2024-02-20T11:49:08.856Z,7.40
2024-02-20T11:50:12.399Z,6.53
2024-02-20T11:51:18.671Z,6.03
2024-02-20T11:52:20.476Z,6.50
2024-02-20T11:53:22.485Z,6.00
2024-02-20T11:54:24.042Z,7.45
2024-02-20T11:55:26.530Z,6.68
2024-02-20T11:56:29.273Z,7.15
2024-02-20T11:57:30.923Z,6.63
2024-02-20T11:58:32.590Z,6.63
2024-02-20T11:59:34.352Z,7.43
2024-02-20T12:00:39.877Z,7.45
2024-02-20T12:01:41.762Z,6.90
2024-02-20T12:02:43.692Z,6.55
2024-02-20T12:03:45.667Z,7.75
2024-02-20T12:04:57.606Z,6.68
2024-02-20T12:06:04.450Z,7.47
2024-02-20T12:07:10.879Z,6.85
2024-02-20T12:08:17.664Z,7.22
2024-02-20T12:09:19.535Z,6.70
2024-02-20T12:10:22.224Z,6.78
2024-02-20T12:11:28.789Z,7.10
2024-02-20T12:12:31.572Z,6.30
2024-02-20T12:13:33.415Z,7.20
2024-02-20T12:14:35.053Z,7.47
2024-02-20T12:15:40.286Z,6.80
2024-02-20T12:16:41.956Z,7.57
2024-02-20T12:17:45.738Z,7.53
2024-02-20T12:18:51.705Z,7.18
2024-02-20T12:20:05.260Z,7.30
2024-02-20T12:21:08.713Z,6.72
2024-02-20T12:22:10.951Z,6.43
2024-02-20T12:23:19.772Z,6.68
2024-02-20T12:24:24.565Z,6.43
2024-02-20T12:25:26.332Z,6.25
2024-02-20T12:26:28.688Z,6.65
2024-02-20T12:27:30.408Z,6.70
2024-02-20T12:28:32.282Z,6.40
2024-02-20T12:29:36.047Z,6.47
2024-02-20T12:30:41.540Z,7.15
2024-02-20T12:31:43.198Z,6.65
2024-02-20T12:32:44.928Z,6.65
2024-02-20T12:33:46.769Z,6.80
2024-02-20T12:34:52.443Z,6.78
2024-02-20T12:35:58.802Z,6.63
2024-02-20T12:37:00.656Z,5.75
2024-02-20T12:38:02.246Z,5.68
2024-02-20T12:39:03.866Z,5.03
2024-02-20T12:40:10.090Z,5.63
2024-02-20T12:41:12.054Z,5.22
2024-02-20T12:42:14.038Z,4.93
2024-02-20T12:43:15.596Z,5.43
2024-02-20T12:44:17.124Z,5.22
2024-02-20T12:45:18.724Z,5.15
2024-02-20T12:46:20.576Z,5.30
2024-02-20T12:47:22.213Z,4.97
2024-02-20T12:48:24.039Z,4.93
2024-02-20T12:49:25.838Z,4.72
2024-02-20T12:50:27.513Z,4.68
2024-02-20T12:51:30.130Z,4.18
2024-02-20T12:52:31.864Z,4.53
2024-02-20T12:53:35.290Z,4.07
2024-02-20T12:54:38.823Z,3.85
2024-02-20T12:55:42.094Z,3.40
2024-02-20T12:56:44.402Z,4.30
2024-02-20T12:57:45.991Z,4.80
2024-02-20T12:58:48.072Z,3.95
2024-02-20T12:59:49.884Z,4.13
2024-02-20T13:00:51.502Z,3.60
2024-02-20T13:01:53.156Z,4.38
2024-02-20T13:02:58.835Z,4.07
2024-02-20T13:04:00.689Z,4.03
2024-02-20T13:05:02.566Z,3.72
2024-02-20T13:06:04.664Z,4.03
2024-02-20T13:07:06.340Z,3.88
2024-02-20T13:08:08.994Z,3.65
2024-02-20T13:09:11.725Z,3.80
2024-02-20T13:10:14.157Z,4.20
2024-02-20T13:11:18.618Z,4.32
2024-02-20T13:12:20.301Z,4.03
2024-02-20T13:13:21.883Z,5.13
2024-02-20T13:14:23.515Z,3.97
2024-02-20T13:15:25.498Z,2.95
2024-02-20T13:16:27.202Z,4.55
2024-02-20T13:17:28.865Z,3.50
2024-02-20T13:18:30.641Z,3.40
2024-02-20T13:19:32.504Z,3.80
2024-02-20T13:20:34.459Z,3.53
2024-02-20T13:21:39.675Z,2.97
2024-02-20T13:22:41.356Z,3.55
2024-02-20T13:23:43.538Z,4.25
2024-02-20T13:24:45.229Z,4.25
2024-02-20T13:25:48.310Z,3.15
2024-02-20T13:26:54.441Z,3.63
2024-02-20T13:27:56.628Z,3.75
2024-02-20T13:28:58.285Z,3.78
2024-02-20T13:29:59.922Z,3.35
2024-02-20T13:31:02.003Z,3.50
2024-02-20T13:32:04.758Z,3.72
2024-02-20T13:33:06.912Z,4.00